FDX420 KLAX-KSAN
Flight info
| Callsign | FDX420 |
|---|---|
| Flight time | 0h 30m |
| Altitude | 13000 |
| Route | LAXX1 MZB |
| Aircraft | B77L/H-SDE1E2E3FGHIJ2J3J4J5M1RWXY/LB1D1 |
Departure
| Time | 2026-05-04 00:04 |
|---|---|
| Airport | Los Angeles International Airport (KLAX) |
Arrival
| Time | 2026-05-04 00:34 |
|---|---|
| Airport | San Diego International Airport (KSAN) |
| Time | Latitude | Longitude | Altitude | Speed | Heading |
|---|---|---|---|---|---|
| 2026-05-03 23:48 | 33.93390 | -118.38978 | 125 ft | 0 kts | 180° |
| 2026-05-03 23:51 | 33.93391 | -118.38978 | 125 ft | 0 kts | 180° |
| 2026-05-03 23:56 | 33.93400 | -118.38978 | 125 ft | 3 kts | 180° |
| 2026-05-03 23:56 | 33.93420 | -118.38978 | 128 ft | 3 kts | 179° |
| 2026-05-03 23:56 | 33.93441 | -118.38978 | 127 ft | 3 kts | 179° |
| 2026-05-03 23:57 | 33.93461 | -118.38978 | 125 ft | 3 kts | 179° |
| 2026-05-03 23:57 | 33.93481 | -118.38978 | 126 ft | 3 kts | 179° |
| 2026-05-03 23:57 | 33.93501 | -118.38980 | 125 ft | 3 kts | 166° |
| 2026-05-03 23:57 | 33.93520 | -118.38988 | 125 ft | 3 kts | 146° |
| 2026-05-03 23:58 | 33.93533 | -118.39003 | 125 ft | 3 kts | 114° |
| 2026-05-03 23:58 | 33.93537 | -118.39019 | 125 ft | 1 kts | 83° |
| 2026-05-03 23:58 | 33.93537 | -118.39020 | 125 ft | 7 kts | 82° |
| 2026-05-04 00:01 | 33.93540 | -118.38989 | 128 ft | 15 kts | 83° |
| 2026-05-04 00:01 | 33.93556 | -118.38843 | 130 ft | 18 kts | 83° |
| 2026-05-04 00:01 | 33.93571 | -118.38695 | 129 ft | 18 kts | 83° |
| 2026-05-04 00:02 | 33.93587 | -118.38547 | 130 ft | 18 kts | 83° |
| 2026-05-04 00:02 | 33.93602 | -118.38399 | 130 ft | 15 kts | 85° |
| 2026-05-04 00:02 | 33.93613 | -118.38312 | 126 ft | 7 kts | 66° |
| 2026-05-04 00:02 | 33.93623 | -118.38296 | 127 ft | 0 kts | 49° |
| 2026-05-04 00:03 | 33.93627 | -118.38293 | 127 ft | 5 kts | 43° |
| 2026-05-04 00:03 | 33.93715 | -118.38315 | 128 ft | 20 kts | 300° |
| 2026-05-04 00:03 | 33.93703 | -118.38606 | 130 ft | 66 kts | 263° |
| 2026-05-04 00:03 | 33.93599 | -118.39571 | 130 ft | 165 kts | 262° |
| 2026-05-04 00:04 | 33.93418 | -118.41164 | 714 ft | 199 kts | 262° |
| 2026-05-04 00:04 | 33.93225 | -118.42809 | 2158 ft | 200 kts | 261° |
| 2026-05-04 00:04 | 33.93036 | -118.44560 | 2817 ft | 223 kts | 258° |
| 2026-05-04 00:04 | 33.92361 | -118.46311 | 3405 ft | 239 kts | 234° |
| 2026-05-04 00:05 | 33.91342 | -118.47936 | 4240 ft | 245 kts | 233° |
| 2026-05-04 00:05 | 33.90296 | -118.49587 | 4863 ft | 252 kts | 232° |
| 2026-05-04 00:05 | 33.89203 | -118.51281 | 5006 ft | 255 kts | 232° |
| 2026-05-04 00:05 | 33.88125 | -118.52949 | 5009 ft | 250 kts | 232° |
| 2026-05-04 00:06 | 33.87047 | -118.54622 | 5009 ft | 256 kts | 233° |
| 2026-05-04 00:06 | 33.85948 | -118.56330 | 5000 ft | 259 kts | 228° |
| 2026-05-04 00:06 | 33.84475 | -118.57548 | 5110 ft | 261 kts | 198° |
| 2026-05-04 00:06 | 33.82654 | -118.57665 | 5902 ft | 271 kts | 171° |
| 2026-05-04 00:07 | 33.80845 | -118.56985 | 6797 ft | 275 kts | 163° |
| 2026-05-04 00:07 | 33.79047 | -118.56172 | 7764 ft | 276 kts | 162° |
| 2026-05-04 00:07 | 33.77258 | -118.55338 | 8732 ft | 276 kts | 162° |
| 2026-05-04 00:07 | 33.75466 | -118.54497 | 9647 ft | 278 kts | 162° |
| 2026-05-04 00:08 | 33.73656 | -118.53640 | 10497 ft | 281 kts | 162° |
| 2026-05-04 00:08 | 33.71854 | -118.52775 | 11266 ft | 285 kts | 162° |
| 2026-05-04 00:08 | 33.70005 | -118.51876 | 12069 ft | 287 kts | 161° |
| 2026-05-04 00:08 | 33.68258 | -118.50621 | 12783 ft | 298 kts | 140° |
| 2026-05-04 00:09 | 33.66966 | -118.48645 | 13041 ft | 316 kts | 128° |
| 2026-05-04 00:09 | 33.65696 | -118.46336 | 13041 ft | 345 kts | 127° |
| 2026-05-04 00:09 | 33.64334 | -118.43841 | 13044 ft | 364 kts | 127° |
| 2026-05-04 00:09 | 33.62953 | -118.41280 | 13025 ft | 367 kts | 127° |
| 2026-05-04 00:10 | 33.61569 | -118.38702 | 13022 ft | 368 kts | 127° |
| 2026-05-04 00:10 | 33.60185 | -118.36121 | 13007 ft | 368 kts | 127° |
| 2026-05-04 00:10 | 33.58802 | -118.33547 | 13010 ft | 367 kts | 127° |
| 2026-05-04 00:10 | 33.57417 | -118.30976 | 13010 ft | 366 kts | 127° |
| 2026-05-04 00:11 | 33.56033 | -118.28412 | 13015 ft | 366 kts | 127° |
| 2026-05-04 00:11 | 33.54646 | -118.25847 | 13009 ft | 367 kts | 127° |
| 2026-05-04 00:11 | 33.53258 | -118.23284 | 13010 ft | 367 kts | 127° |
| 2026-05-04 00:11 | 33.51867 | -118.20719 | 13011 ft | 367 kts | 127° |
| 2026-05-04 00:12 | 33.50935 | -118.19004 | 13023 ft | 378 kts | 127° |
| 2026-05-04 00:12 | 33.49339 | -118.16336 | 17304 ft | 419 kts | 131° |
| 2026-05-04 00:12 | 33.47699 | -118.13330 | 16795 ft | 434 kts | 128° |
| 2026-05-04 00:12 | 33.46103 | -118.10257 | 16454 ft | 439 kts | 127° |
| 2026-05-04 00:13 | 33.44524 | -118.07204 | 15653 ft | 426 kts | 127° |
| 2026-05-04 00:13 | 33.42954 | -118.04282 | 14945 ft | 407 kts | 128° |
| 2026-05-04 00:13 | 33.41451 | -118.01510 | 14166 ft | 389 kts | 127° |
| 2026-05-04 00:13 | 33.40001 | -117.98830 | 13268 ft | 374 kts | 127° |
| 2026-05-04 00:14 | 33.38602 | -117.96273 | 13077 ft | 367 kts | 127° |
| 2026-05-04 00:14 | 33.37190 | -117.93714 | 13042 ft | 370 kts | 127° |
| 2026-05-04 00:14 | 33.35765 | -117.91132 | 13018 ft | 373 kts | 127° |
| 2026-05-04 00:14 | 33.34339 | -117.88541 | 13013 ft | 373 kts | 127° |
| 2026-05-04 00:15 | 33.32915 | -117.85948 | 13018 ft | 373 kts | 127° |
| 2026-05-04 00:15 | 33.31493 | -117.83356 | 13015 ft | 372 kts | 127° |
| 2026-05-04 00:15 | 33.30083 | -117.80784 | 13006 ft | 369 kts | 127° |
| 2026-05-04 00:15 | 33.28679 | -117.78225 | 13008 ft | 367 kts | 127° |
| 2026-05-04 00:16 | 33.27280 | -117.75675 | 13011 ft | 367 kts | 127° |
| 2026-05-04 00:16 | 33.25881 | -117.73129 | 13010 ft | 366 kts | 127° |
| 2026-05-04 00:16 | 33.24483 | -117.70587 | 13012 ft | 366 kts | 127° |
| 2026-05-04 00:16 | 33.23082 | -117.68041 | 13009 ft | 367 kts | 127° |
| 2026-05-04 00:17 | 33.21678 | -117.65492 | 13008 ft | 368 kts | 127° |
| 2026-05-04 00:17 | 33.20271 | -117.62939 | 13026 ft | 368 kts | 127° |
| 2026-05-04 00:17 | 33.18860 | -117.60380 | 13004 ft | 370 kts | 127° |
| 2026-05-04 00:17 | 33.17446 | -117.57817 | 13005 ft | 370 kts | 127° |
| 2026-05-04 00:18 | 33.16027 | -117.55246 | 13010 ft | 371 kts | 127° |
| 2026-05-04 00:18 | 33.14606 | -117.52674 | 13007 ft | 372 kts | 127° |
| 2026-05-04 00:18 | 33.13183 | -117.50099 | 13002 ft | 372 kts | 127° |
| 2026-05-04 00:18 | 33.11760 | -117.47525 | 13002 ft | 372 kts | 127° |
| 2026-05-04 00:19 | 33.10337 | -117.44954 | 12995 ft | 370 kts | 128° |
| 2026-05-04 00:19 | 33.08947 | -117.42438 | 12987 ft | 356 kts | 128° |
| 2026-05-04 00:19 | 33.07615 | -117.40027 | 12979 ft | 340 kts | 128° |
| 2026-05-04 00:19 | 33.06343 | -117.37730 | 12973 ft | 324 kts | 128° |
| 2026-05-04 00:20 | 33.05141 | -117.35564 | 12982 ft | 315 kts | 129° |
| 2026-05-04 00:20 | 33.03724 | -117.33566 | 13014 ft | 309 kts | 148° |
| 2026-05-04 00:20 | 33.01887 | -117.32348 | 13033 ft | 300 kts | 164° |
| 2026-05-04 00:20 | 32.99952 | -117.31530 | 13031 ft | 298 kts | 166° |
| 2026-05-04 00:21 | 32.97997 | -117.30738 | 12824 ft | 296 kts | 166° |
| 2026-05-04 00:21 | 32.96060 | -117.29953 | 12536 ft | 292 kts | 166° |
| 2026-05-04 00:21 | 32.94150 | -117.29172 | 12190 ft | 289 kts | 166° |
| 2026-05-04 00:21 | 32.92255 | -117.28392 | 11789 ft | 288 kts | 166° |
| 2026-05-04 00:22 | 32.90365 | -117.27609 | 11391 ft | 287 kts | 165° |
| 2026-05-04 00:22 | 32.88563 | -117.26621 | 10927 ft | 290 kts | 147° |
| 2026-05-04 00:22 | 32.87141 | -117.24908 | 10641 ft | 291 kts | 134° |
| 2026-05-04 00:22 | 32.85918 | -117.23021 | 10417 ft | 285 kts | 131° |
| 2026-05-04 00:23 | 32.84748 | -117.21127 | 10120 ft | 283 kts | 131° |
| 2026-05-04 00:23 | 32.83592 | -117.19246 | 9738 ft | 281 kts | 131° |
| 2026-05-04 00:23 | 32.82442 | -117.17376 | 9370 ft | 278 kts | 131° |
| 2026-05-04 00:23 | 32.81331 | -117.15544 | 9106 ft | 271 kts | 131° |
| 2026-05-04 00:24 | 32.80232 | -117.13717 | 8670 ft | 273 kts | 131° |
| 2026-05-04 00:24 | 32.79125 | -117.11882 | 8263 ft | 273 kts | 131° |
| 2026-05-04 00:24 | 32.78020 | -117.10058 | 7921 ft | 271 kts | 130° |
| 2026-05-04 00:24 | 32.77050 | -117.08153 | 7499 ft | 273 kts | 114° |
| 2026-05-04 00:25 | 32.76620 | -117.05945 | 7118 ft | 276 kts | 103° |
| 2026-05-04 00:25 | 32.76374 | -117.03700 | 6974 ft | 274 kts | 101° |
| 2026-05-04 00:25 | 32.76149 | -117.01458 | 6953 ft | 269 kts | 101° |
| 2026-05-04 00:25 | 32.75947 | -116.99360 | 6947 ft | 253 kts | 101° |
| 2026-05-04 00:26 | 32.75766 | -116.97335 | 6839 ft | 242 kts | 101° |
| 2026-05-04 00:26 | 32.75601 | -116.95372 | 6540 ft | 237 kts | 101° |
| 2026-05-04 00:26 | 32.75439 | -116.93446 | 6125 ft | 237 kts | 101° |
| 2026-05-04 00:26 | 32.75257 | -116.91483 | 5751 ft | 234 kts | 101° |
| 2026-05-04 00:27 | 32.75068 | -116.89595 | 5421 ft | 230 kts | 100° |
| 2026-05-04 00:27 | 32.74862 | -116.87758 | 5415 ft | 222 kts | 102° |
| 2026-05-04 00:27 | 32.74367 | -116.86030 | 5397 ft | 225 kts | 131° |
| 2026-05-04 00:27 | 32.73158 | -116.84892 | 5433 ft | 224 kts | 165° |
| 2026-05-04 00:28 | 32.71649 | -116.84731 | 5427 ft | 218 kts | 196° |
| 2026-05-04 00:28 | 32.70357 | -116.85569 | 5437 ft | 211 kts | 226° |
| 2026-05-04 00:28 | 32.69511 | -116.87020 | 5232 ft | 218 kts | 244° |
| 2026-05-04 00:28 | 32.68902 | -116.88659 | 5061 ft | 214 kts | 246° |
| 2026-05-04 00:29 | 32.68332 | -116.90261 | 5016 ft | 209 kts | 246° |
| 2026-05-04 00:29 | 32.67757 | -116.91862 | 4907 ft | 216 kts | 246° |
| 2026-05-04 00:29 | 32.67339 | -116.93616 | 4297 ft | 223 kts | 269° |
| 2026-05-04 00:29 | 32.67572 | -116.95393 | 4075 ft | 213 kts | 283° |
| 2026-05-04 00:30 | 32.67971 | -116.97054 | 3982 ft | 206 kts | 285° |
| 2026-05-04 00:30 | 32.68381 | -116.98646 | 3726 ft | 198 kts | 285° |
| 2026-05-04 00:30 | 32.68759 | -117.00150 | 3443 ft | 183 kts | 285° |
| 2026-05-04 00:30 | 32.69107 | -117.01556 | 3210 ft | 174 kts | 284° |
| 2026-05-04 00:31 | 32.69447 | -117.02930 | 2965 ft | 175 kts | 285° |
| 2026-05-04 00:31 | 32.69794 | -117.04332 | 2748 ft | 176 kts | 285° |
| 2026-05-04 00:31 | 32.70126 | -117.05679 | 2483 ft | 163 kts | 284° |
| 2026-05-04 00:31 | 32.70426 | -117.06907 | 2215 ft | 149 kts | 284° |
| 2026-05-04 00:32 | 32.70714 | -117.08087 | 1994 ft | 148 kts | 284° |
| 2026-05-04 00:32 | 32.70998 | -117.09249 | 1752 ft | 147 kts | 284° |
| 2026-05-04 00:32 | 32.71282 | -117.10413 | 1535 ft | 146 kts | 284° |
| 2026-05-04 00:32 | 32.71566 | -117.11589 | 1325 ft | 147 kts | 284° |
| 2026-05-04 00:33 | 32.71842 | -117.12752 | 1157 ft | 148 kts | 284° |
| 2026-05-04 00:33 | 32.72391 | -117.15055 | 638 ft | 142 kts | 285° |
| 2026-05-04 00:33 | 32.72670 | -117.16161 | 409 ft | 136 kts | 283° |
| 2026-05-04 00:34 | 32.72934 | -117.17249 | 176 ft | 138 kts | 284° |
| 2026-05-04 00:34 | 32.73187 | -117.18303 | 37 ft | 123 kts | 285° |
| 2026-05-04 00:34 | 32.73403 | -117.19177 | 27 ft | 93 kts | 287° |
| 2026-05-04 00:34 | 32.73532 | -117.19700 | 34 ft | 35 kts | 278° |
| 2026-05-04 00:35 | 32.73447 | -117.19827 | 31 ft | 20 kts | 157° |
| 2026-05-04 00:35 | 32.73392 | -117.19682 | 29 ft | 20 kts | 103° |
| 2026-05-04 00:35 | 32.73366 | -117.19519 | 31 ft | 20 kts | 99° |